Time;durP1;ratioP1;P1;durP2;ratioP2;P2;SDS_P1;SDS_P2;PMS_P1;PMS_P2;Temp;Humidity;BMP_temperature;BMP_pressure;BME280_temperature;BME280_humidity;BME280_pressure;Samples;Min_cycle;Max_cycle;Signal;HPM_P1;HPM_P2
2022/08/09 00:00:04;;;;;;;;;;;21.90;75.40;;;;;;5015354;28;19912;-71
2022/08/09 00:02:30;;;;;;;;;;;21.80;75.40;;;;;;5015413;28;19932;-79
2022/08/09 00:04:55;;;;;;;;;;;21.80;75.50;;;;;;5014755;28;19909;-71
2022/08/09 00:07:21;;;;;;;;;;;21.70;75.50;;;;;;5015064;28;19905;-71
2022/08/09 00:09:46;;;;;;;;;;;21.70;75.50;;;;;;5015118;28;19905;-80
2022/08/09 00:12:12;;;;;;;;;;;21.70;75.60;;;;;;5014629;28;19905;-80
2022/08/09 00:14:38;;;;;;;;;;;21.60;75.70;;;;;;5015009;28;20387;-71
2022/08/09 00:17:04;;;;;;;;;;;21.60;75.60;;;;;;5014600;28;20288;-80
2022/08/09 00:19:29;;;;;;;;;;;21.50;75.50;;;;;;5006841;28;19905;-71
2022/08/09 00:21:55;;;;;;;;;;;21.50;75.70;;;;;;4994668;28;20419;-79
2022/08/09 00:24:20;;;;;;;;;;;21.50;75.60;;;;;;4994466;28;19914;-80
2022/08/09 00:26:47;;;;;;;;;;;21.50;75.70;;;;;;4995181;28;19914;-80
2022/08/09 00:29:13;;;;;;;;;;;21.40;75.60;;;;;;4994932;28;19905;-71
2022/08/09 00:31:38;;;;;;;;;;;21.40;75.70;;;;;;4995023;28;19906;-72
2022/08/09 00:34:04;;;;;;;;;;;21.30;75.80;;;;;;4995025;28;19997;-83
2022/08/09 00:36:30;;;;;;;;;;;21.30;75.80;;;;;;4995414;28;19905;-83
2022/08/09 00:38:55;;;;;;;;;;;21.30;75.90;;;;;;5004620;28;19909;-83
2022/08/09 00:41:21;;;;;;;;;;;21.20;75.80;;;;;;5013627;28;20005;-83
2022/08/09 00:43:50;;;;;;;;;;;21.20;76.00;;;;;;5014196;28;20000;-83
2022/08/09 00:46:16;;;;;;;;;;;21.10;75.80;;;;;;5014651;28;20279;-83
2022/08/09 00:48:41;;;;;;;;;;;21.10;76.00;;;;;;5014538;28;20052;-74
2022/08/09 00:51:07;;;;;;;;;;;21.10;76.10;;;;;;5014073;28;19973;-74
2022/08/09 00:53:36;;;;;;;;;;;21.00;76.00;;;;;;5014289;28;19948;-83
2022/08/09 00:56:03;;;;;;;;;;;21.00;76.00;;;;;;5014352;28;19905;-83
2022/08/09 00:58:30;;;;;;;;;;;21.00;75.90;;;;;;5014389;28;19959;-83
2022/08/09 01:00:55;;;;;;;;;;;21.10;75.90;;;;;;5014180;28;19921;-73
2022/08/09 01:03:26;;;;;;;;;;;21.10;75.80;;;;;;5014115;28;19910;-83
2022/08/09 01:06:21;;;;;;;;;;;21.10;75.90;;;;;;5014131;28;19948;-83
2022/08/09 01:09:01;;;;;;;;;;;21.10;76.00;;;;;;5009356;28;19905;-74
2022/08/09 01:11:32;;;;;;;;;;;21.10;76.10;;;;;;5014040;28;19955;-83
2022/08/09 01:14:20;;;;;;;;;;;21.00;76.30;;;;;;5014121;28;20327;-74
2022/08/09 01:16:47;;;;;;;;;;;20.90;76.30;;;;;;5013558;28;19912;-74
2022/08/09 01:19:18;;;;;;;;;;;20.90;76.70;;;;;;5013399;28;19912;-74
2022/08/09 01:21:56;;;;;;;;;;;20.80;76.90;;;;;;5013715;28;19905;-71
2022/08/09 01:24:30;;;;;;;;;;;20.80;76.90;;;;;;5013955;28;20003;-80
2022/08/09 01:27:01;;;;;;;;;;;20.80;77.00;;;;;;5013694;28;20284;-80
2022/08/09 01:29:32;;;;;;;;;;;20.70;76.90;;;;;;5013701;28;19905;-80
2022/08/09 01:31:59;;;;;;;;;;;20.70;76.90;;;;;;5013817;28;19909;-71
2022/08/09 01:34:26;;;;;;;;;;;20.70;76.90;;;;;;5013312;28;19909;-80
2022/08/09 01:36:53;;;;;;;;;;;20.70;76.90;;;;;;5013689;28;19910;-71
2022/08/09 01:39:19;;;;;;;;;;;20.70;76.80;;;;;;5012727;28;20460;-80
2022/08/09 01:41:45;;;;;;;;;;;20.70;76.80;;;;;;5012790;28;19910;-80
2022/08/09 01:44:12;;;;;;;;;;;20.70;76.90;;;;;;5013575;28;19920;-71
2022/08/09 01:46:40;;;;;;;;;;;20.70;77.00;;;;;;5014159;28;19906;-72
2022/08/09 01:49:08;;;;;;;;;;;20.60;76.90;;;;;;5012260;28;20008;-71
2022/08/09 01:51:34;;;;;;;;;;;20.60;76.90;;;;;;5013478;28;19913;-71
2022/08/09 01:54:00;;;;;;;;;;;20.60;77.00;;;;;;5013447;28;19905;-80
2022/08/09 01:56:27;;;;;;;;;;;20.50;77.20;;;;;;5013702;28;19952;-80
2022/08/09 01:58:55;;;;;;;;;;;20.50;77.20;;;;;;5013775;28;19905;-80
2022/08/09 02:01:21;;;;;;;;;;;20.50;77.50;;;;;;5013393;28;19905;-80
2022/08/09 02:03:47;;;;;;;;;;;20.40;78.10;;;;;;5013348;28;19909;-71
2022/08/09 02:06:13;;;;;;;;;;;20.40;77.90;;;;;;5013603;28;19909;-80
2022/08/09 02:08:41;;;;;;;;;;;20.30;78.00;;;;;;5013019;28;19905;-72
2022/08/09 02:11:07;;;;;;;;;;;20.30;78.10;;;;;;5013549;28;19905;-71
2022/08/09 02:13:33;;;;;;;;;;;20.20;78.30;;;;;;5013184;28;20495;-71
2022/08/09 02:16:01;;;;;;;;;;;20.20;78.50;;;;;;5012136;28;20036;-71
2022/08/09 02:18:28;;;;;;;;;;;20.20;78.50;;;;;;5013143;28;19912;-80
2022/08/09 02:21:15;;;;;;;;;;;20.10;78.50;;;;;;5013007;28;19905;-80
2022/08/09 02:23:42;;;;;;;;;;;20.10;78.80;;;;;;5013210;28;19973;-71
2022/08/09 02:26:09;;;;;;;;;;;20.00;79.00;;;;;;5012582;28;19912;-71
2022/08/09 02:28:37;;;;;;;;;;;20.00;79.60;;;;;;5012735;28;19905;-80
2022/08/09 02:31:05;;;;;;;;;;;20.00;79.20;;;;;;5012885;28;19944;-79
2022/08/09 02:33:33;;;;;;;;;;;20.00;79.10;;;;;;5012925;28;20300;-80
2022/08/09 02:35:59;;;;;;;;;;;20.00;79.10;;;;;;5012777;28;20390;-80
2022/08/09 02:38:27;;;;;;;;;;;20.00;79.10;;;;;;5013159;28;19905;-80
2022/08/09 02:40:56;;;;;;;;;;;20.00;79.20;;;;;;5013302;28;19918;-71
2022/08/09 02:43:22;;;;;;;;;;;20.00;79.20;;;;;;5012073;28;19910;-80
2022/08/09 02:45:49;;;;;;;;;;;20.00;79.20;;;;;;5013683;28;19956;-80
2022/08/09 02:48:15;;;;;;;;;;;20.10;79.20;;;;;;5016767;28;19912;-80
2022/08/09 02:50:43;;;;;;;;;;;20.00;79.30;;;;;;5016388;28;19947;-80
2022/08/09 02:53:12;;;;;;;;;;;20.00;79.20;;;;;;5016434;28;19924;-72
2022/08/09 02:55:39;;;;;;;;;;;20.00;79.40;;;;;;5016619;28;20296;-71
2022/08/09 02:58:05;;;;;;;;;;;20.00;79.50;;;;;;5016542;28;19913;-80
2022/08/09 03:00:30;;;;;;;;;;;19.90;79.50;;;;;;5016645;28;20357;-72
2022/08/09 03:02:56;;;;;;;;;;;19.90;79.70;;;;;;5015998;28;19992;-80
2022/08/09 03:05:22;;;;;;;;;;;19.80;79.90;;;;;;5015470;28;20063;-72
2022/08/09 03:07:48;;;;;;;;;;;19.80;80.00;;;;;;5016111;28;20000;-71
2022/08/09 03:10:14;;;;;;;;;;;19.80;80.20;;;;;;5016190;28;20430;-80
2022/08/09 03:12:40;;;;;;;;;;;19.80;80.50;;;;;;5015806;28;20288;-72
2022/08/09 03:15:07;;;;;;;;;;;19.80;80.50;;;;;;5016182;28;19905;-80
2022/08/09 03:17:33;;;;;;;;;;;19.80;80.80;;;;;;5015940;28;20323;-80
2022/08/09 03:19:59;;;;;;;;;;;19.80;80.70;;;;;;5009304;28;19952;-72
2022/08/09 03:22:26;;;;;;;;;;;19.90;80.80;;;;;;4996332;28;19976;-80
2022/08/09 03:24:52;;;;;;;;;;;19.90;80.90;;;;;;4996520;28;19916;-80
2022/08/09 03:27:18;;;;;;;;;;;20.00;80.70;;;;;;4996291;28;19906;-80
2022/08/09 03:29:44;;;;;;;;;;;19.90;80.90;;;;;;4996394;28;20320;-71
2022/08/09 03:32:10;;;;;;;;;;;19.90;81.10;;;;;;4996173;28;19905;-80
2022/08/09 03:34:35;;;;;;;;;;;19.90;81.20;;;;;;4995816;28;19906;-80
2022/08/09 03:37:01;;;;;;;;;;;19.90;81.30;;;;;;4996403;28;19997;-80
2022/08/09 03:39:27;;;;;;;;;;;19.80;81.60;;;;;;5011538;28;19916;-80
2022/08/09 03:41:53;;;;;;;;;;;19.80;81.70;;;;;;5015388;28;20315;-80
2022/08/09 03:44:21;;;;;;;;;;;19.80;81.80;;;;;;5014783;28;19909;-71
2022/08/09 03:46:46;;;;;;;;;;;19.80;82.00;;;;;;5015699;28;19905;-72
2022/08/09 03:49:12;;;;;;;;;;;19.70;81.90;;;;;;5015341;28;20009;-71
2022/08/09 03:51:39;;;;;;;;;;;19.70;82.20;;;;;;5015171;28;19913;-71
2022/08/09 03:54:05;;;;;;;;;;;19.70;82.30;;;;;;5015259;28;19905;-81
2022/08/09 03:56:30;;;;;;;;;;;19.70;82.40;;;;;;5014757;28;19936;-80
2022/08/09 03:58:56;;;;;;;;;;;19.60;82.60;;;;;;5015196;28;19932;-71
2022/08/09 04:01:22;;;;;;;;;;;19.60;82.80;;;;;;5015343;28;20284;-80
2022/08/09 04:03:48;;;;;;;;;;;19.70;82.80;;;;;;5014803;28;20292;-71
2022/08/09 04:06:14;;;;;;;;;;;19.70;82.90;;;;;;5015107;28;19905;-80
2022/08/09 04:08:40;;;;;;;;;;;19.60;83.10;;;;;;5014911;28;20000;-80
2022/08/09 04:11:06;;;;;;;;;;;19.60;83.30;;;;;;5014883;28;20262;-72
2022/08/09 04:13:32;;;;;;;;;;;19.50;83.50;;;;;;5014284;28;19913;-71
2022/08/09 04:15:57;;;;;;;;;;;19.50;83.70;;;;;;5014739;28;19905;-71
2022/08/09 04:18:23;;;;;;;;;;;19.50;83.90;;;;;;5014573;28;19905;-80
2022/08/09 04:20:49;;;;;;;;;;;19.50;84.10;;;;;;5001328;28;19985;-71
2022/08/09 04:23:15;;;;;;;;;;;19.40;84.80;;;;;;4994826;28;19913;-72
2022/08/09 04:25:40;;;;;;;;;;;19.40;84.40;;;;;;4994923;28;20113;-72
2022/08/09 04:28:06;;;;;;;;;;;19.30;84.60;;;;;;4995061;28;19905;-71
2022/08/09 04:30:31;;;;;;;;;;;19.30;84.80;;;;;;4995224;28;19913;-71
2022/08/09 04:32:58;;;;;;;;;;;19.30;85.00;;;;;;4994745;28;19999;-80
2022/08/09 04:35:24;;;;;;;;;;;19.20;85.20;;;;;;4994948;28;19910;-80
2022/08/09 04:37:50;;;;;;;;;;;19.20;85.40;;;;;;4996867;28;19920;-80
2022/08/09 04:40:16;;;;;;;;;;;19.20;85.50;;;;;;5014505;28;19956;-71
2022/08/09 04:42:41;;;;;;;;;;;19.20;85.60;;;;;;5013973;28;19909;-71
2022/08/09 04:45:07;;;;;;;;;;;19.20;85.70;;;;;;5014085;28;19932;-80
2022/08/09 04:47:33;;;;;;;;;;;19.20;85.70;;;;;;5014292;28;19906;-80
2022/08/09 04:49:58;;;;;;;;;;;19.20;85.70;;;;;;5014137;28;19970;-71
2022/08/09 04:52:25;;;;;;;;;;;19.30;85.90;;;;;;5014044;28;19917;-71
2022/08/09 04:54:51;;;;;;;;;;;19.20;85.80;;;;;;5014275;28;20384;-71
2022/08/09 04:57:16;;;;;;;;;;;19.20;86.00;;;;;;5014150;28;19905;-80
2022/08/09 04:59:42;;;;;;;;;;;19.20;86.10;;;;;;5014097;28;19905;-80
2022/08/09 05:02:08;;;;;;;;;;;19.10;86.30;;;;;;5014116;28;19905;-71
2022/08/09 05:04:33;;;;;;;;;;;19.10;86.40;;;;;;5013795;28;19963;-71
2022/08/09 05:06:59;;;;;;;;;;;19.10;86.50;;;;;;5014116;28;19906;-72
2022/08/09 05:09:25;;;;;;;;;;;19.00;86.70;;;;;;5013521;28;20261;-80
2022/08/09 05:11:50;;;;;;;;;;;19.10;86.90;;;;;;5013880;28;20007;-80
2022/08/09 05:14:16;;;;;;;;;;;19.00;86.80;;;;;;5013794;28;19905;-80
2022/08/09 05:16:41;;;;;;;;;;;19.00;87.00;;;;;;5013813;28;20316;-71
2022/08/09 05:19:07;;;;;;;;;;;19.10;87.10;;;;;;5013656;28;20361;-79
2022/08/09 05:21:32;;;;;;;;;;;19.10;87.10;;;;;;4994517;28;20347;-71
2022/08/09 05:23:58;;;;;;;;;;;19.10;87.10;;;;;;4994145;28;19916;-80
2022/08/09 05:26:23;;;;;;;;;;;19.20;87.40;;;;;;4994132;28;20392;-80
2022/08/09 05:28:49;;;;;;;;;;;19.20;87.10;;;;;;4993802;28;19948;-71
2022/08/09 05:31:14;;;;;;;;;;;19.30;87.10;;;;;;4994050;28;20357;-71
2022/08/09 05:33:40;;;;;;;;;;;19.30;87.00;;;;;;4994327;28;19905;-80
2022/08/09 05:36:06;;;;;;;;;;;19.40;87.60;;;;;;5002396;28;20395;-71
2022/08/09 05:38:31;;;;;;;;;;;19.50;87.00;;;;;;5006172;28;19918;-79
2022/08/09 05:40:57;;;;;;;;;;;19.50;86.80;;;;;;4993980;28;19916;-71
2022/08/09 05:43:23;;;;;;;;;;;19.60;86.90;;;;;;4993331;28;19910;-80
2022/08/09 05:45:48;;;;;;;;;;;19.60;86.70;;;;;;4993538;28;19910;-71
2022/08/09 05:48:14;;;;;;;;;;;19.70;86.80;;;;;;5000801;28;19909;-80
2022/08/09 05:50:42;;;;;;;;;;;19.70;86.80;;;;;;5009917;28;19956;-71
2022/08/09 05:53:08;;;;;;;;;;;19.70;86.70;;;;;;5013218;28;19924;-80
2022/08/09 05:55:34;;;;;;;;;;;19.90;86.60;;;;;;5013432;28;19906;-71
2022/08/09 05:57:59;;;;;;;;;;;19.90;86.50;;;;;;5013259;28;19905;-71
2022/08/09 06:00:25;;;;;;;;;;;20.00;86.40;;;;;;5012459;28;19910;-80
2022/08/09 06:02:51;;;;;;;;;;;20.10;86.30;;;;;;5012570;28;19909;-71
2022/08/09 06:05:17;;;;;;;;;;;20.20;86.30;;;;;;5012616;28;20431;-80
2022/08/09 06:07:42;;;;;;;;;;;20.20;86.20;;;;;;5012682;28;20276;-72
2022/08/09 06:10:08;;;;;;;;;;;20.30;86.10;;;;;;5012924;28;19905;-73
2022/08/09 06:12:33;;;;;;;;;;;20.50;86.00;;;;;;5011458;28;19912;-73
2022/08/09 06:14:59;;;;;;;;;;;20.50;86.00;;;;;;5013175;28;20300;-73
2022/08/09 06:17:25;;;;;;;;;;;20.60;85.80;;;;;;5012914;28;19906;-80
2022/08/09 06:19:50;;;;;;;;;;;20.60;85.90;;;;;;5007729;28;19956;-73
2022/08/09 06:22:16;;;;;;;;;;;20.60;85.90;;;;;;4996876;28;19909;-72
2022/08/09 06:24:44;;;;;;;;;;;20.70;85.90;;;;;;5006260;28;19936;-81
2022/08/09 06:27:09;;;;;;;;;;;20.80;86.00;;;;;;5012019;28;20372;-81
2022/08/09 06:29:35;;;;;;;;;;;20.70;86.00;;;;;;5014497;28;19905;-81
2022/08/09 06:32:00;;;;;;;;;;;20.70;86.10;;;;;;5015432;28;19909;-73
2022/08/09 06:34:26;;;;;;;;;;;20.80;86.20;;;;;;5015189;28;19909;-73
2022/08/09 06:36:52;;;;;;;;;;;20.80;86.10;;;;;;5011595;28;19905;-72
2022/08/09 06:39:17;;;;;;;;;;;20.90;86.20;;;;;;5013866;28;19920;-81
2022/08/09 06:41:43;;;;;;;;;;;21.00;86.20;;;;;;5014319;28;19909;-73
2022/08/09 06:44:09;;;;;;;;;;;21.10;86.00;;;;;;5015222;28;19913;-73
2022/08/09 06:46:36;;;;;;;;;;;21.10;86.10;;;;;;5015323;28;19906;-73
2022/08/09 06:49:02;;;;;;;;;;;21.20;86.10;;;;;;5014835;28;19905;-73
2022/08/09 06:51:27;;;;;;;;;;;21.20;86.10;;;;;;5014425;28;19952;-72
2022/08/09 06:53:53;;;;;;;;;;;21.20;86.20;;;;;;5013896;28;19913;-73
2022/08/09 06:56:19;;;;;;;;;;;21.20;86.20;;;;;;5014823;28;20307;-82
2022/08/09 06:58:44;;;;;;;;;;;21.30;86.30;;;;;;5013181;28;19985;-80
2022/08/09 07:01:10;;;;;;;;;;;21.40;86.20;;;;;;5011366;28;19918;-73
2022/08/09 07:03:35;;;;;;;;;;;21.50;86.10;;;;;;5009590;28;19917;-73
2022/08/09 07:06:02;;;;;;;;;;;21.60;85.90;;;;;;5010496;28;19913;-81
2022/08/09 07:08:27;;;;;;;;;;;21.70;85.80;;;;;;5013251;28;19936;-81
2022/08/09 07:10:53;;;;;;;;;;;21.80;85.60;;;;;;5008470;28;20347;-81
2022/08/09 07:13:19;;;;;;;;;;;22.00;85.40;;;;;;5010015;28;19917;-73
2022/08/09 07:15:45;;;;;;;;;;;22.10;85.20;;;;;;5012515;28;19949;-73
2022/08/09 07:18:10;;;;;;;;;;;22.30;84.90;;;;;;5009005;28;20438;-79
2022/08/09 07:20:36;;;;;;;;;;;22.50;84.60;;;;;;5012403;28;20028;-81
2022/08/09 07:23:01;;;;;;;;;;;22.70;84.30;;;;;;5013506;28;20316;-82
2022/08/09 07:25:27;;;;;;;;;;;22.80;83.80;;;;;;5014018;28;19921;-81
2022/08/09 07:27:52;;;;;;;;;;;23.00;83.50;;;;;;5013197;28;20348;-73
2022/08/09 07:30:18;;;;;;;;;;;23.10;83.20;;;;;;5013212;28;20336;-82
2022/08/09 07:32:43;;;;;;;;;;;23.20;83.10;;;;;;5012887;28;19917;-81
2022/08/09 07:35:11;;;;;;;;;;;23.40;82.90;;;;;;5009778;28;19919;-73
2022/08/09 07:37:37;;;;;;;;;;;23.70;82.40;;;;;;5013396;28;20007;-82
2022/08/09 07:40:03;;;;;;;;;;;23.90;82.10;;;;;;5012668;28;20474;-73
2022/08/09 07:42:28;;;;;;;;;;;24.00;81.40;;;;;;5005488;28;20333;-81
2022/08/09 07:44:54;;;;;;;;;;;24.20;81.20;;;;;;5007894;28;19913;-82
2022/08/09 07:47:20;;;;;;;;;;;24.40;80.70;;;;;;4998836;28;19928;-82
2022/08/09 07:49:46;;;;;;;;;;;24.60;80.10;;;;;;4993880;28;19913;-82
2022/08/09 07:52:11;;;;;;;;;;;24.70;79.90;;;;;;5008305;28;19917;-73
2022/08/09 07:54:37;;;;;;;;;;;24.70;79.70;;;;;;5007944;28;19913;-73
2022/08/09 07:57:03;;;;;;;;;;;25.20;79.10;;;;;;5010405;28;20365;-79
2022/08/09 07:59:28;;;;;;;;;;;26.80;77.00;;;;;;5011631;28;19920;-80
2022/08/09 08:01:54;;;;;;;;;;;28.40;74.10;;;;;;5011508;28;19909;-74
2022/08/09 08:04:20;;;;;;;;;;;29.70;72.00;;;;;;5011019;28;20365;-73
2022/08/09 08:06:46;;;;;;;;;;;30.30;70.70;;;;;;5012914;28;20292;-73
2022/08/09 08:09:11;;;;;;;;;;;30.80;69.90;;;;;;5011992;28;19914;-74
2022/08/09 08:11:37;;;;;;;;;;;31.00;69.70;;;;;;5000269;28;19948;-83
2022/08/09 08:14:03;;;;;;;;;;;31.30;68.70;;;;;;5007164;28;20365;-82
2022/08/09 08:16:28;;;;;;;;;;;31.60;68.80;;;;;;5011200;28;19931;-73
2022/08/09 08:18:54;;;;;;;;;;;32.00;68.10;;;;;;5006123;28;20360;-74
2022/08/09 08:21:19;;;;;;;;;;;32.70;67.30;;;;;;5010480;28;19909;-73
2022/08/09 08:23:45;;;;;;;;;;;32.70;66.80;;;;;;5012340;28;19967;-82
2022/08/09 08:26:10;;;;;;;;;;;33.10;67.00;;;;;;5011044;28;20320;-74
2022/08/09 08:28:36;;;;;;;;;;;33.40;66.50;;;;;;5009117;28;19960;-83
2022/08/09 08:31:01;;;;;;;;;;;33.20;65.90;;;;;;5008864;28;19917;-74
2022/08/09 08:33:27;;;;;;;;;;;33.50;65.90;;;;;;5012290;28;20368;-73
2022/08/09 08:35:52;;;;;;;;;;;34.30;65.50;;;;;;5004991;28;20360;-81
2022/08/09 08:38:18;;;;;;;;;;;35.00;64.90;;;;;;5009213;28;19917;-72
2022/08/09 08:40:43;;;;;;;;;;;35.90;64.40;;;;;;5010917;28;20296;-81
2022/08/09 08:43:09;;;;;;;;;;;36.60;63.70;;;;;;5003311;28;19963;-72
2022/08/09 08:45:41;;;;;;;;;;;37.00;63.10;;;;;;5010307;28;19917;-72
2022/08/09 08:48:08;;;;;;;;;;;37.00;62.50;;;;;;5012123;28;19913;-80
2022/08/09 08:50:33;;;;;;;;;;;37.10;62.70;;;;;;5011691;28;19917;-81
2022/08/09 08:52:59;;;;;;;;;;;37.20;62.20;;;;;;5011080;28;20323;-81
2022/08/09 08:55:25;;;;;;;;;;;37.40;62.40;;;;;;5008257;28;19925;-81
2022/08/09 08:57:52;;;;;;;;;;;36.10;62.30;;;;;;5008809;28;20430;-72
2022/08/09 09:00:17;;;;;;;;;;;35.70;63.30;;;;;;5011343;28;19916;-72
2022/08/09 09:02:43;;;;;;;;;;;35.40;64.40;;;;;;5011012;28;19909;-72
2022/08/09 09:05:10;;;;;;;;;;;35.10;63.40;;;;;;5011161;28;19920;-72
2022/08/09 09:07:36;;;;;;;;;;;35.50;63.50;;;;;;5010955;28;19909;-80
2022/08/09 09:10:05;;;;;;;;;;;35.50;63.60;;;;;;5009759;28;20308;-80
2022/08/09 09:12:31;;;;;;;;;;;36.10;63.70;;;;;;5010535;28;19913;-72
2022/08/09 09:14:57;;;;;;;;;;;36.40;63.10;;;;;;5011159;28;20633;-72
2022/08/09 09:17:23;;;;;;;;;;;37.50;62.50;;;;;;5010255;28;20376;-81
2022/08/09 09:19:49;;;;;;;;;;;37.30;62.30;;;;;;5010357;28;19952;-82
2022/08/09 09:22:16;;;;;;;;;;;37.30;61.70;;;;;;5009876;28;20002;-72
2022/08/09 09:24:44;;;;;;;;;;;37.90;61.70;;;;;;5010903;28;19993;-72
2022/08/09 09:27:11;;;;;;;;;;;38.20;61.90;;;;;;5010356;28;20299;-82
2022/08/09 09:29:38;;;;;;;;;;;38.20;61.70;;;;;;5010484;28;19913;-82
2022/08/09 09:32:04;;;;;;;;;;;37.60;61.40;;;;;;5005376;28;19914;-81
2022/08/09 09:34:30;;;;;;;;;;;37.90;61.70;;;;;;4991565;28;19914;-77
2022/08/09 09:36:56;;;;;;;;;;;38.80;61.10;;;;;;5004402;28;19910;-72
2022/08/09 09:39:22;;;;;;;;;;;39.10;60.50;;;;;;5007947;28;19921;-80
2022/08/09 09:41:49;;;;;;;;;;;38.60;60.80;;;;;;5004951;28;19933;-82
2022/08/09 09:44:18;;;;;;;;;;;38.70;61.70;;;;;;5005183;28;19913;-72
2022/08/09 09:46:44;;;;;;;;;;;38.50;61.00;;;;;;5005176;28;19960;-80
2022/08/09 09:49:11;;;;;;;;;;;39.40;60.90;;;;;;5010173;28;19910;-72
2022/08/09 09:51:37;;;;;;;;;;;38.80;60.40;;;;;;5010756;28;19913;-72
2022/08/09 09:54:03;;;;;;;;;;;38.60;60.30;;;;;;5009231;28;20372;-72
2022/08/09 09:56:39;;;;;;;;;;;38.90;60.50;;;;;;5014912;28;19921;-73
2022/08/09 09:59:05;;;;;;;;;;;38.60;60.80;;;;;;5015477;28;19920;-78
2022/08/09 10:01:31;;;;;;;;;;;38.90;60.70;;;;;;5014067;28;19913;-82
2022/08/09 10:03:58;;;;;;;;;;;38.50;60.40;;;;;;5014344;28;20043;-72
2022/08/09 10:06:24;;;;;;;;;;;38.40;60.70;;;;;;5015664;28;19916;-82
2022/08/09 10:08:49;;;;;;;;;;;38.70;60.50;;;;;;5011038;28;20000;-72
2022/08/09 10:11:17;;;;;;;;;;;39.20;60.10;;;;;;5010863;28;20044;-72
2022/08/09 10:13:43;;;;;;;;;;;39.40;60.10;;;;;;5011447;28;19910;-83
2022/08/09 10:16:08;;;;;;;;;;;39.90;59.50;;;;;;5015256;28;20277;-72
2022/08/09 10:18:34;;;;;;;;;;;39.30;59.60;;;;;;5014725;28;20037;-82
2022/08/09 10:21:06;;;;;;;;;;;39.80;60.10;;;;;;5014571;28;19920;-82
2022/08/09 10:23:32;;;;;;;;;;;40.00;59.70;;;;;;5014451;28;19913;-82
2022/08/09 10:26:01;;;;;;;;;;;39.80;59.40;;;;;;5014099;28;19921;-83
2022/08/09 10:28:28;;;;;;;;;;;38.90;59.70;;;;;;5014300;28;20373;-72
2022/08/09 10:30:53;;;;;;;;;;;39.10;59.30;;;;;;5015629;28;19956;-76
2022/08/09 10:33:19;;;;;;;;;;;39.40;59.40;;;;;;5011732;28;20266;-72
2022/08/09 10:35:45;;;;;;;;;;;39.80;59.50;;;;;;5012204;28;19909;-82
2022/08/09 10:38:11;;;;;;;;;;;39.80;59.50;;;;;;5011677;28;19917;-79
2022/08/09 10:40:37;;;;;;;;;;;40.20;59.70;;;;;;5012136;28;19913;-72
2022/08/09 10:43:04;;;;;;;;;;;39.80;59.30;;;;;;5012388;28;19920;-72
2022/08/09 10:45:30;;;;;;;;;;;39.80;59.70;;;;;;5011069;28;19924;-81
2022/08/09 10:48:25;;;;;;;;;;;40.20;59.20;;;;;;5012072;28;19921;-82
2022/08/09 10:51:13;;;;;;;;;;;40.20;59.00;;;;;;5005857;28;19948;-82
2022/08/09 10:53:58;;;;;;;;;;;40.20;59.10;;;;;;5013945;28;20438;-72
2022/08/09 10:56:26;;;;;;;;;;;39.80;58.80;;;;;;5013055;28;19936;-72
2022/08/09 10:58:53;;;;;;;;;;;39.90;58.60;;;;;;5013095;28;19913;-72
2022/08/09 11:01:31;;;;;;;;;;;39.80;58.60;;;;;;5013424;28;19909;-81
2022/08/09 11:04:08;;;;;;;;;;;39.70;58.30;;;;;;5013051;28;19917;-82
2022/08/09 11:06:36;;;;;;;;;;;40.10;58.70;;;;;;5010829;28;19909;-72
2022/08/09 11:09:02;;;;;;;;;;;40.80;58.40;;;;;;5012205;28;19921;-73
2022/08/09 11:11:46;;;;;;;;;;;40.10;58.20;;;;;;5009392;28;20458;-72
2022/08/09 11:14:29;;;;;;;;;;;39.80;58.40;;;;;;5011862;28;19957;-81
2022/08/09 11:16:55;;;;;;;;;;;40.40;58.10;;;;;;5013612;28;19931;-72
2022/08/09 11:19:39;;;;;;;;;;;40.20;57.70;;;;;;5007343;28;20357;-73
2022/08/09 11:22:07;;;;;;;;;;;40.10;57.40;;;;;;5008916;28;19937;-72
2022/08/09 11:24:51;;;;;;;;;;;40.60;58.10;;;;;;5010572;28;19917;-82
2022/08/09 11:27:31;;;;;;;;;;;40.30;58.10;;;;;;5012299;28;20372;-72
2022/08/09 11:29:57;;;;;;;;;;;39.90;58.40;;;;;;5008282;28;19956;-82
2022/08/09 11:32:42;;;;;;;;;;;39.80;57.70;;;;;;5012152;28;19921;-82
2022/08/09 11:35:26;;;;;;;;;;;39.40;57.70;;;;;;5012806;28;19963;-71
2022/08/09 11:37:52;;;;;;;;;;;38.40;58.80;;;;;;5013473;28;19915;-78
2022/08/09 11:40:29;;;;;;;;;;;38.00;59.40;;;;;;5012609;28;19936;-81
2022/08/09 11:42:56;;;;;;;;;;;37.90;59.90;;;;;;5013130;28;19920;-81
2022/08/09 11:45:21;;;;;;;;;;;37.70;58.40;;;;;;5012241;28;19964;-72
2022/08/09 11:47:48;;;;;;;;;;;37.80;58.90;;;;;;5009668;28;19975;-71
2022/08/09 11:50:14;;;;;;;;;;;37.80;59.10;;;;;;5012253;28;19924;-81
2022/08/09 11:52:58;;;;;;;;;;;37.70;58.30;;;;;;5012548;28;19921;-83
2022/08/09 11:55:33;;;;;;;;;;;37.70;58.90;;;;;;5006591;28;19914;-83
2022/08/09 11:58:04;;;;;;;;;;;37.40;57.80;;;;;;5011082;28;19909;-83
2022/08/09 12:00:31;;;;;;;;;;;37.70;57.70;;;;;;5011959;28;19917;-84
2022/08/09 12:02:57;;;;;;;;;;;37.50;58.50;;;;;;5012447;28;19948;-83
2022/08/09 12:05:30;;;;;;;;;;;37.10;58.30;;;;;;5010450;28;19983;-74
2022/08/09 12:07:55;;;;;;;;;;;37.20;58.70;;;;;;5006526;28;20280;-74
2022/08/09 12:10:23;;;;;;;;;;;36.90;58.40;;;;;;5010179;28;19913;-74
2022/08/09 12:12:49;;;;;;;;;;;37.00;56.60;;;;;;5006301;28;20340;-74
2022/08/09 12:15:23;;;;;;;;;;;37.20;58.00;;;;;;5011214;28;19916;-82
2022/08/09 12:17:49;;;;;;;;;;;37.30;57.90;;;;;;5011804;28;19913;-84
2022/08/09 12:20:15;;;;;;;;;;;37.20;57.70;;;;;;5004014;28;20373;-74
2022/08/09 12:22:41;;;;;;;;;;;37.10;57.60;;;;;;5011543;28;19913;-74
2022/08/09 12:25:26;;;;;;;;;;;36.90;56.90;;;;;;5011597;28;20430;-75
2022/08/09 12:28:10;;;;;;;;;;;37.40;57.30;;;;;;5011580;28;20416;-74
2022/08/09 12:30:36;;;;;;;;;;;37.40;57.50;;;;;;5011360;28;19941;-84
2022/08/09 12:33:01;;;;;;;;;;;37.60;57.90;;;;;;5012337;28;20075;-84
2022/08/09 12:35:27;;;;;;;;;;;37.50;57.50;;;;;;5011570;28;19921;-83
2022/08/09 12:37:52;;;;;;;;;;;37.60;57.10;;;;;;5010658;28;19967;-75
2022/08/09 12:40:19;;;;;;;;;;;37.70;57.40;;;;;;5010955;28;19914;-74
2022/08/09 12:42:46;;;;;;;;;;;37.20;57.80;;;;;;5009636;28;19913;-82
2022/08/09 12:45:11;;;;;;;;;;;37.40;58.50;;;;;;5010556;28;19920;-74
2022/08/09 12:47:37;;;;;;;;;;;37.10;57.80;;;;;;5011465;28;20459;-83
2022/08/09 12:50:19;;;;;;;;;;;36.90;58.10;;;;;;5011785;28;19936;-75
2022/08/09 12:52:46;;;;;;;;;;;37.30;57.80;;;;;;5011729;28;19925;-74
2022/08/09 12:55:22;;;;;;;;;;;37.70;57.80;;;;;;5011452;28;20325;-81
2022/08/09 12:57:47;;;;;;;;;;;37.50;58.30;;;;;;5011075;28;19973;-84
2022/08/09 13:00:16;;;;;;;;;;;37.90;58.50;;;;;;5011085;28;20004;-83
2022/08/09 13:02:48;;;;;;;;;;;37.90;56.80;;;;;;5010639;28;19913;-84
2022/08/09 13:05:14;;;;;;;;;;;37.80;57.00;;;;;;5011203;28;20334;-75
2022/08/09 13:07:40;;;;;;;;;;;37.80;57.30;;;;;;5010360;28;19909;-74
2022/08/09 13:10:05;;;;;;;;;;;37.90;57.80;;;;;;5009950;28;19944;-75
2022/08/09 13:12:31;;;;;;;;;;;37.70;57.60;;;;;;5009108;28;19917;-75
2022/08/09 13:15:04;;;;;;;;;;;38.00;57.60;;;;;;5010566;28;19952;-75
2022/08/09 13:17:29;;;;;;;;;;;38.10;57.50;;;;;;5003793;28;19963;-75
2022/08/09 13:19:56;;;;;;;;;;;38.20;57.50;;;;;;5009845;28;19956;-75
2022/08/09 13:22:22;;;;;;;;;;;38.30;57.30;;;;;;5008853;28;19999;-75
2022/08/09 13:24:51;;;;;;;;;;;37.70;56.60;;;;;;5007966;28;19913;-83
2022/08/09 13:27:22;;;;;;;;;;;37.40;57.80;;;;;;5004611;28;19910;-82
2022/08/09 13:30:20;;;;;;;;;;;37.70;58.00;;;;;;5004266;28;19913;-74
2022/08/09 13:32:50;;;;;;;;;;;37.90;58.00;;;;;;4972392;28;20421;-74
2022/08/09 13:35:17;;;;;;;;;;;37.80;57.90;;;;;;5004994;28;19955;-74
2022/08/09 13:37:43;;;;;;;;;;;37.10;57.00;;;;;;5010277;28;19910;-75
2022/08/09 13:40:09;;;;;;;;;;;36.80;58.10;;;;;;5010354;28;19917;-83
2022/08/09 13:42:35;;;;;;;;;;;36.80;58.30;;;;;;5010564;28;19909;-75
2022/08/09 13:45:01;;;;;;;;;;;37.20;58.00;;;;;;5010690;28;19958;-74
2022/08/09 13:47:27;;;;;;;;;;;37.70;57.60;;;;;;5010275;28;19920;-84
2022/08/09 13:49:52;;;;;;;;;;;38.00;57.20;;;;;;5010431;28;19914;-79
2022/08/09 13:52:19;;;;;;;;;;;37.90;57.30;;;;;;5007762;28;20459;-81
2022/08/09 13:54:45;;;;;;;;;;;37.60;56.90;;;;;;5008884;28;20059;-83
2022/08/09 13:57:10;;;;;;;;;;;37.80;57.10;;;;;;5006628;28;19996;-75
2022/08/09 13:59:36;;;;;;;;;;;37.80;57.20;;;;;;5002797;28;20352;-83
2022/08/09 14:02:02;;;;;;;;;;;37.70;56.60;;;;;;5008190;28;19923;-75
2022/08/09 14:04:28;;;;;;;;;;;37.80;56.10;;;;;;5009235;28;19913;-83
2022/08/09 14:06:57;;;;;;;;;;;38.00;56.50;;;;;;5010773;28;19916;-79
2022/08/09 14:09:23;;;;;;;;;;;38.10;56.20;;;;;;5008721;28;20313;-75
2022/08/09 14:11:52;;;;;;;;;;;38.20;56.60;;;;;;5009517;28;19949;-75
2022/08/09 14:14:18;;;;;;;;;;;38.20;56.90;;;;;;5010790;28;19953;-74
2022/08/09 14:16:43;;;;;;;;;;;38.40;56.00;;;;;;5010688;28;20007;-74